Time;durP1;ratioP1;P1;durP2;ratioP2;P2;SDS_P1;SDS_P2;PMS_P1;PMS_P2;Temp;Humidity;BMP_temperature;BMP_pressure;BME280_temperature;BME280_humidity;BME280_pressure;Samples;Min_cycle;Max_cycle;Signal;HPM_P1;HPM_P2
2022/05/13 00:01:15;;;;;;;6.88;2.03;;;;;;;-145.45;100.00;62759.84;5316670;27;20492;-78
2022/05/13 00:03:46;;;;;;;11.07;3.55;;;;;;;-145.45;100.00;62759.84;5314824;27;20552;-78
2022/05/13 00:06:18;;;;;;;10.35;3.35;;;;;;;-145.45;100.00;62759.84;5314786;27;20059;-78
2022/05/13 00:08:49;;;;;;;13.27;3.40;;;;;;;-145.45;100.00;62759.84;5315714;27;20036;-78
2022/05/13 00:11:20;;;;;;;10.52;2.50;;;;;;;-145.45;100.00;62759.84;5314337;27;20031;-78
2022/05/13 00:13:52;;;;;;;7.72;2.85;;;;;;;-145.45;100.00;62759.84;5300126;27;20051;-78
2022/05/13 00:16:23;;;;;;;7.30;3.75;;;;;;;-145.45;100.00;62759.84;5317394;27;20035;-78
2022/05/13 00:18:55;;;;;;;12.32;3.10;;;;;;;-145.45;100.00;62759.84;5317708;27;20030;-78
2022/05/13 00:21:26;;;;;;;12.55;3.47;;;;;;;-145.45;100.00;62759.84;5298244;27;20392;-78
2022/05/13 00:23:57;;;;;;;15.80;3.83;;;;;;;-145.45;100.00;62759.84;5315153;27;20531;-78
2022/05/13 00:26:29;;;;;;;9.23;3.65;;;;;;;-145.45;100.00;62759.84;5317508;27;20047;-78
2022/05/13 00:29:00;;;;;;;11.55;3.05;;;;;;;-145.45;100.00;62759.84;5317352;27;20016;-78
2022/05/13 00:31:31;;;;;;;13.40;3.55;;;;;;;-145.45;100.00;62759.84;5316044;27;20048;-78
2022/05/13 00:34:03;;;;;;;11.23;3.22;;;;;;;-145.45;100.00;62759.84;5313578;27;20403;-78
2022/05/13 00:36:34;;;;;;;11.27;3.28;;;;;;;-145.45;100.00;62759.84;5321590;27;20028;-78
2022/05/13 00:39:07;;;;;;;12.15;3.22;;;;;;;-145.45;100.00;62759.84;5318497;27;20035;-78
2022/05/13 00:41:38;;;;;;;11.07;3.63;;;;;;;-145.45;100.00;62759.84;5317322;27;20273;-78
2022/05/13 00:44:09;;;;;;;10.10;2.83;;;;;;;-145.45;100.00;62759.84;5317342;27;20032;-78
2022/05/13 00:46:41;;;;;;;12.02;3.78;;;;;;;-145.45;100.00;62759.84;5316244;27;20032;-78
2022/05/13 00:49:15;;;;;;;9.40;3.28;;;;;;;-145.45;100.00;62759.84;5317558;27;20063;-79
2022/05/13 00:51:47;;;;;;;15.50;3.83;;;;;;;-145.45;100.00;62759.84;5313881;27;20060;-78
2022/05/13 00:54:19;;;;;;;9.93;3.53;;;;;;;-145.45;100.00;62759.84;5316353;27;20115;-78
2022/05/13 00:56:50;;;;;;;13.35;3.58;;;;;;;-145.45;100.00;62759.84;5313956;27;20399;-78
2022/05/13 00:59:24;;;;;;;11.65;3.83;;;;;;;-145.45;100.00;62759.84;5315624;27;20439;-78
2022/05/13 01:01:57;;;;;;;9.00;3.25;;;;;;;-145.45;100.00;62759.84;5313012;27;20089;-78
2022/05/13 01:04:30;;;;;;;13.10;3.70;;;;;;;-145.45;100.00;62759.84;5316873;27;20059;-78
2022/05/13 01:07:06;;;;;;;7.05;3.10;;;;;;;-145.45;100.00;62759.84;5315839;27;20242;-78
2022/05/13 01:09:44;;;;;;;9.05;2.70;;;;;;;-145.45;100.00;62759.84;5316043;27;20028;-78
2022/05/13 01:12:21;;;;;;;8.35;2.50;;;;;;;-145.45;100.00;62759.84;5312634;27;20024;-78
2022/05/13 01:15:04;;;;;;;3.83;2.10;;;;;;;-145.45;100.00;62759.84;5315085;27;20385;-78
2022/05/13 01:20:33;;;;;;;8.68;2.33;;;;;;;-145.45;100.00;62759.84;5315954;27;20032;-78
2022/05/13 01:23:09;;;;;;;6.35;2.03;;;;;;;-145.45;100.00;62759.84;5314947;27;20413;-78
2022/05/13 01:25:45;;;;;;;13.10;2.33;;;;;;;-145.45;100.00;62759.84;5318629;27;20340;-78
2022/05/13 01:28:20;;;;;;;4.60;1.92;;;;;;;-145.45;100.00;62759.84;5317462;27;20032;-78
2022/05/13 01:30:54;;;;;;;8.40;2.35;;;;;;;-145.45;100.00;62759.84;5322561;27;20053;-78
2022/05/13 01:33:27;;;;;;;3.75;1.98;;;;;;;-145.45;100.00;62759.84;5322303;27;20031;-78
2022/05/13 01:36:00;;;;;;;8.10;2.08;;;;;;;-145.45;100.00;62759.84;5317481;27;20383;-78
2022/05/13 01:38:38;;;;;;;9.77;2.08;;;;;;;-145.45;100.00;62759.84;5319558;27;20097;-78
2022/05/13 01:41:12;;;;;;;8.18;2.72;;;;;;;-145.45;100.00;62759.84;5318745;27;20341;-78
2022/05/13 01:43:46;;;;;;;6.13;2.17;;;;;;;-145.45;100.00;62759.84;5316753;27;20849;-78
2022/05/13 01:46:19;;;;;;;7.03;2.10;;;;;;;-145.45;100.00;62759.84;5317878;27;20051;-78
2022/05/13 01:48:51;;;;;;;10.10;2.20;;;;;;;-145.45;100.00;62759.84;5317217;27;20021;-78
2022/05/13 01:51:23;;;;;;;4.72;1.63;;;;;;;-145.45;100.00;62759.84;5316803;27;20036;-78
2022/05/13 01:53:54;;;;;;;7.53;2.65;;;;;;;-145.45;100.00;62759.84;5317366;27;20039;-78
2022/05/13 01:56:25;;;;;;;6.03;1.95;;;;;;;-145.45;100.00;62759.84;5315462;27;20540;-78
2022/05/13 01:58:57;;;;;;;5.10;2.35;;;;;;;-145.45;100.00;62759.84;5317436;27;20029;-78
2022/05/13 02:01:28;;;;;;;8.68;2.17;;;;;;;-145.45;100.00;62759.84;5317555;27;20063;-77
2022/05/13 02:03:59;;;;;;;4.25;1.70;;;;;;;-145.45;100.00;62759.84;5298372;27;20028;-77
2022/05/13 02:06:30;;;;;;;7.72;1.90;;;;;;;-145.45;100.00;62759.84;5320533;27;20048;-78
2022/05/13 02:09:02;;;;;;;5.38;1.23;;;;;;;-145.45;100.00;62759.84;5318356;27;20034;-78
2022/05/13 02:11:36;;;;;;;7.85;1.92;;;;;;;-145.45;100.00;62759.84;5318142;27;20020;-78
2022/05/13 02:14:08;;;;;;;6.50;2.03;;;;;;;-145.45;100.00;62759.84;5295263;27;20051;-78
2022/05/13 02:16:40;;;;;;;6.40;1.80;;;;;;;-145.45;100.00;62759.84;5315863;27;20695;-78
2022/05/13 02:19:12;;;;;;;6.80;1.90;;;;;;;-145.45;100.00;62759.84;5315952;27;20043;-78
2022/05/13 02:21:43;;;;;;;8.70;2.00;;;;;;;-145.45;100.00;62759.84;5319817;27;20025;-78
2022/05/13 02:24:15;;;;;;;7.93;2.30;;;;;;;-145.45;100.00;62759.84;5293888;28;20032;-78
2022/05/13 02:26:46;;;;;;;4.22;2.00;;;;;;;-145.45;100.00;62759.84;5315209;27;20703;-78
2022/05/13 02:29:18;;;;;;;7.28;1.85;;;;;;;-145.45;100.00;62759.84;5315895;27;20032;-78
2022/05/13 02:31:49;;;;;;;8.60;2.05;;;;;;;-145.45;100.00;62759.84;5318465;27;20035;-78
2022/05/13 02:34:20;;;;;;;7.18;2.45;;;;;;;-145.45;100.00;62759.84;5321637;27;20036;-78
2022/05/13 02:36:51;;;;;;;8.55;2.20;;;;;;;-145.45;100.00;62759.84;5323648;27;20077;-78
2022/05/13 02:39:23;;;;;;;9.15;2.35;;;;;;;-145.45;100.00;62759.84;5319777;27;20020;-78
2022/05/13 02:41:54;;;;;;;5.65;2.47;;;;;;;-145.45;100.00;62759.84;5317717;27;20031;-78
2022/05/13 02:44:25;;;;;;;9.05;2.75;;;;;;;-145.45;100.00;62759.84;5320353;27;20024;-78
2022/05/13 02:46:57;;;;;;;10.18;2.30;;;;;;;-145.45;100.00;62759.84;5322622;27;20126;-78
2022/05/13 02:49:28;;;;;;;9.25;1.60;;;;;;;-145.45;100.00;62759.84;5319239;27;20532;-78
2022/05/13 02:51:59;;;;;;;12.50;2.15;;;;;;;-145.45;100.00;62759.84;5321606;27;20032;-78
2022/05/13 02:54:31;;;;;;;8.82;2.97;;;;;;;-145.45;100.00;62759.84;5322145;27;20035;-78
2022/05/13 02:57:03;;;;;;;7.88;2.35;;;;;;;-145.45;100.00;62759.84;5318421;27;20028;-78
2022/05/13 02:59:34;;;;;;;12.65;2.65;;;;;;;-145.45;100.00;62759.84;5320724;27;20103;-78
2022/05/13 03:02:06;;;;;;;10.90;2.90;;;;;;;-145.45;100.00;62759.84;5319542;27;20020;-78
2022/05/13 03:04:37;;;;;;;10.18;2.50;;;;;;;-145.45;100.00;62759.84;5319756;27;20021;-78
2022/05/13 03:07:08;;;;;;;8.05;2.58;;;;;;;-145.45;100.00;62759.84;5322207;27;20061;-78
2022/05/13 03:09:40;;;;;;;11.57;3.13;;;;;;;-145.45;100.00;62759.84;5343852;27;20019;-78
2022/05/13 03:12:11;;;;;;;10.02;2.53;;;;;;;-145.45;100.00;62759.84;5341901;27;20035;-78
2022/05/13 03:14:43;;;;;;;9.73;2.90;;;;;;;-145.45;100.00;62759.84;5341095;27;20112;-78
2022/05/13 03:17:14;;;;;;;8.20;2.88;;;;;;;-145.45;100.00;62759.84;5339353;27;20392;-78
2022/05/13 03:19:46;;;;;;;13.25;3.40;;;;;;;-145.45;100.00;62759.84;5340787;27;20422;-78
2022/05/13 03:22:17;;;;;;;10.30;3.10;;;;;;;-145.45;100.00;62759.84;5341110;27;20521;-78
2022/05/13 03:24:49;;;;;;;11.15;3.28;;;;;;;-145.45;100.00;62759.84;5344203;27;20063;-78
2022/05/13 03:27:20;;;;;;;10.43;2.70;;;;;;;-145.45;100.00;62759.84;5338576;27;20032;-78
2022/05/13 03:29:52;;;;;;;11.82;3.00;;;;;;;-145.45;100.00;62759.84;5341807;27;20483;-78
2022/05/13 03:32:23;;;;;;;7.65;2.70;;;;;;;-145.45;100.00;62759.84;5342397;27;20498;-78
2022/05/13 03:34:55;;;;;;;9.18;3.00;;;;;;;-145.45;100.00;62759.84;5342485;27;20073;-78
2022/05/13 03:37:26;;;;;;;9.88;3.15;;;;;;;-145.45;100.00;62759.84;5343209;27;20051;-78
2022/05/13 03:39:58;;;;;;;12.10;3.65;;;;;;;-145.45;100.00;62759.84;5339966;27;20031;-78
2022/05/13 03:42:29;;;;;;;20.45;4.00;;;;;;;-145.45;100.00;62759.84;5333622;27;26864;-78
2022/05/13 03:45:00;;;;;;;13.80;3.38;;;;;;;-145.45;100.00;62759.84;5337001;27;20028;-78
2022/05/13 03:47:32;;;;;;;12.48;3.45;;;;;;;-145.45;100.00;62759.84;5336492;27;20036;-78
2022/05/13 03:50:05;;;;;;;8.82;2.85;;;;;;;-145.45;100.00;62759.84;5336120;27;20111;-78
2022/05/13 03:52:36;;;;;;;13.65;3.88;;;;;;;-145.45;100.00;62759.84;5335697;27;20023;-78
2022/05/13 03:55:10;;;;;;;10.70;3.88;;;;;;;-145.45;100.00;62759.84;5336960;27;20043;-78
2022/05/13 03:57:41;;;;;;;13.10;3.85;;;;;;;-145.45;100.00;62759.84;5334757;27;20103;-78
2022/05/13 04:00:13;;;;;;;10.40;3.90;;;;;;;-145.45;100.00;62759.84;5337928;27;20167;-77
2022/05/13 04:02:45;;;;;;;14.73;3.80;;;;;;;-145.45;100.00;62759.84;5337798;27;20076;-77
2022/05/13 04:10:57;;;;;;;17.02;3.72;;;;;;;-145.45;100.00;62759.84;5340449;27;20031;-78
2022/05/13 04:16:18;;;;;;;17.08;3.85;;;;;;;-145.45;100.00;62759.84;5335987;27;20190;-78
2022/05/13 04:18:51;;;;;;;13.18;4.07;;;;;;;-145.45;100.00;62759.84;5336186;27;20133;-79
2022/05/13 04:21:29;;;;;;;12.82;4.30;;;;;;;-145.45;100.00;62759.84;5337105;27;20027;-78
2022/05/13 04:24:03;;;;;;;14.50;3.85;;;;;;;-145.45;100.00;62759.84;5335922;27;20024;-78
2022/05/13 04:26:35;;;;;;;14.52;4.55;;;;;;;-145.45;100.00;62759.84;5333434;27;20047;-78
2022/05/13 04:29:06;;;;;;;14.57;4.63;;;;;;;-145.45;100.00;62759.84;5335205;27;20100;-79
2022/05/13 04:31:41;;;;;;;14.65;4.10;;;;;;;-145.45;100.00;62759.84;5334903;27;20032;-78
2022/05/13 04:34:13;;;;;;;15.95;4.55;;;;;;;-145.45;100.00;62759.84;5335054;27;20043;-78
2022/05/13 04:36:44;;;;;;;14.32;4.05;;;;;;;-145.45;100.00;62759.84;5333188;27;20027;-79
2022/05/13 04:39:15;;;;;;;15.93;4.80;;;;;;;-145.45;100.00;62759.84;5335864;27;20024;-78
2022/05/13 04:44:36;;;;;;;15.98;4.93;;;;;;;-145.45;100.00;62759.84;5336225;27;21786;-78
2022/05/13 04:48:15;;;;;;;17.35;5.13;;;;;;;-145.45;100.00;62759.84;5334069;27;20177;-78
2022/05/13 04:49:59;;;;;;;16.88;4.35;;;;;;;-145.45;100.00;62759.84;5337396;27;20036;-78
2022/05/13 04:52:30;;;;;;;15.70;5.00;;;;;;;-145.45;100.00;62759.84;5337820;27;20324;-78
2022/05/13 04:55:02;;;;;;;19.98;5.30;;;;;;;-145.45;100.00;62759.84;5336643;27;20453;-78
2022/05/13 04:57:33;;;;;;;17.02;4.13;;;;;;;-145.45;100.00;62759.84;5335309;27;20028;-78
2022/05/13 05:00:07;;;;;;;13.57;4.45;;;;;;;-145.45;100.00;62759.84;5336132;27;20050;-78
2022/05/13 05:02:38;;;;;;;15.98;4.05;;;;;;;-145.45;100.00;62759.84;5334761;27;20034;-78
2022/05/13 05:05:09;;;;;;;15.05;4.15;;;;;;;-145.45;100.00;62759.84;5332810;27;20028;-78
2022/05/13 05:07:41;;;;;;;12.50;4.70;;;;;;;-145.45;100.00;62759.84;5316269;27;20040;-78
2022/05/13 05:10:12;;;;;;;15.63;4.63;;;;;;;-145.45;100.00;62759.84;5315056;27;20469;-78
2022/05/13 05:12:44;;;;;;;12.50;4.00;;;;;;;-145.45;100.00;62759.84;5318252;27;20543;-78
2022/05/13 05:15:15;;;;;;;10.98;4.35;;;;;;;-145.45;100.00;62759.84;5312046;27;20024;-78
2022/05/13 05:17:47;;;;;;;15.95;4.28;;;;;;;-145.45;100.00;62759.84;5294475;27;20545;-78
2022/05/13 05:20:20;;;;;;;16.58;4.25;;;;;;;-145.45;100.00;62759.84;5298225;27;20429;-78
2022/05/13 05:22:51;;;;;;;13.05;4.22;;;;;;;-145.45;100.00;62759.84;5311998;27;20464;-78
2022/05/13 05:25:28;;;;;;;14.43;3.97;;;;;;;-145.45;100.00;62759.84;5310638;27;20039;-78
2022/05/13 05:27:59;;;;;;;13.13;3.90;;;;;;;-145.45;100.00;62759.84;5300490;27;20040;-78
2022/05/13 05:30:31;;;;;;;13.10;3.72;;;;;;;-145.45;100.00;62759.84;5318970;27;20020;-78
2022/05/13 05:33:03;;;;;;;14.65;4.15;;;;;;;-145.45;100.00;62759.84;5318684;27;20051;-78
2022/05/13 05:35:54;;;;;;;11.25;3.90;;;;;;;-145.45;100.00;62759.84;5317986;27;20020;-78
2022/05/13 05:38:26;;;;;;;14.70;4.35;;;;;;;-145.45;100.00;62759.84;5303189;27;20263;-78
2022/05/13 05:40:59;;;;;;;13.80;4.03;;;;;;;-145.45;100.00;62759.84;5318186;27;20345;-78
2022/05/13 05:43:30;;;;;;;14.10;3.90;;;;;;;-145.45;100.00;62759.84;5316834;27;20035;-78
2022/05/13 05:46:02;;;;;;;17.60;4.00;;;;;;;-145.45;100.00;62759.84;5319872;27;20156;-77
2022/05/13 05:48:33;;;;;;;17.98;4.15;;;;;;;-145.45;100.00;62759.84;5320445;27;20031;-77
2022/05/13 05:51:05;;;;;;;16.63;4.38;;;;;;;-145.45;100.00;62759.84;5319441;27;20024;-77
2022/05/13 05:59:16;;;;;;;16.67;4.10;;;;;;;-145.45;100.00;62759.84;5318840;27;20107;-78
2022/05/13 06:01:47;;;;;;;14.88;4.00;;;;;;;-145.45;100.00;62759.84;5318769;27;20575;-77
2022/05/13 06:04:20;;;;;;;10.40;4.20;;;;;;;-145.45;100.00;62759.84;5319351;27;20033;-78
2022/05/13 06:06:51;;;;;;;15.23;3.65;;;;;;;-145.45;100.00;62759.84;5316079;27;20054;-78
2022/05/13 06:09:22;;;;;;;14.55;4.80;;;;;;;-145.45;100.00;62759.84;5295327;27;20028;-78
2022/05/13 06:11:53;;;;;;;10.13;3.42;;;;;;;-145.45;100.00;62759.84;5316752;27;20028;-78
2022/05/13 06:14:26;;;;;;;10.30;3.97;;;;;;;-145.45;100.00;62759.84;5299486;27;20123;-78
2022/05/13 06:16:57;;;;;;;12.13;3.85;;;;;;;-145.45;100.00;62759.84;5322894;27;20024;-77
2022/05/13 06:19:29;;;;;;;13.95;5.05;;;;;;;-145.45;100.00;62759.84;5296121;27;20168;-78
2022/05/13 06:22:00;;;;;;;16.40;4.90;;;;;;;-145.45;100.00;62759.84;5321101;27;20031;-77
2022/05/13 06:24:31;;;;;;;19.83;4.85;;;;;;;-145.45;100.00;62759.84;5321826;27;20031;-77
2022/05/13 06:27:03;;;;;;;17.48;4.70;;;;;;;-145.45;100.00;62759.84;5321152;27;20042;-78
2022/05/13 06:29:36;;;;;;;15.18;5.25;;;;;;;-145.45;100.00;62759.84;5320550;27;20032;-77
2022/05/13 06:32:08;;;;;;;13.48;4.50;;;;;;;-145.45;100.00;62759.84;5322643;27;20040;-77
2022/05/13 06:34:39;;;;;;;16.45;4.25;;;;;;;-145.45;100.00;62759.84;5299489;27;20032;-77
2022/05/13 06:37:11;;;;;;;15.95;4.72;;;;;;;-145.45;100.00;62759.84;5301637;27;20039;-78
2022/05/13 06:39:42;;;;;;;15.38;4.80;;;;;;;-145.45;100.00;62759.84;5301550;28;20469;-78
2022/05/13 06:42:13;;;;;;;13.32;4.43;;;;;;;-145.45;100.00;62759.84;5314420;28;20032;-78
2022/05/13 06:44:44;;;;;;;17.30;4.82;;;;;;;-145.45;100.00;62759.84;5308469;28;20065;-78
2022/05/13 06:47:16;;;;;;;14.73;4.85;;;;;;;-145.45;100.00;62759.84;5313975;27;20043;-78
2022/05/13 06:49:47;;;;;;;19.83;5.35;;;;;;;-145.45;100.00;62759.84;5320552;27;20024;-78
2022/05/13 06:52:19;;;;;;;19.42;5.35;;;;;;;-145.45;100.00;62759.84;5321302;27;20032;-77
2022/05/13 06:54:50;;;;;;;14.85;5.05;;;;;;;-145.45;100.00;62759.84;5323186;27;20074;-77
2022/05/13 06:57:21;;;;;;;14.00;4.70;;;;;;;-145.45;100.00;62759.84;5318692;27;20683;-77
2022/05/13 06:59:52;;;;;;;21.00;4.80;;;;;;;-145.45;100.00;62759.84;5318513;27;20028;-77
2022/05/13 07:02:27;;;;;;;13.52;4.93;;;;;;;-145.45;100.00;62759.84;5325928;28;20024;-77
2022/05/13 07:04:58;;;;;;;15.98;5.15;;;;;;;-145.45;100.00;62759.84;5322491;27;20032;-77
2022/05/13 07:07:29;;;;;;;15.98;5.10;;;;;;;-145.45;100.00;62759.84;5320021;27;20055;-77
2022/05/13 07:10:01;;;;;;;15.32;5.35;;;;;;;-145.45;100.00;62759.84;5321980;27;20035;-77
2022/05/13 07:12:32;;;;;;;14.93;5.22;;;;;;;-145.45;100.00;62759.84;5318140;27;20028;-77
2022/05/13 07:15:05;;;;;;;10.10;3.58;;;;;;;-145.45;100.00;62759.84;5324292;28;24063;-77
2022/05/13 07:17:42;;;;;;;16.55;5.32;;;;;;;-145.45;100.00;62759.84;5322566;28;20463;-77
2022/05/13 07:20:14;;;;;;;13.50;5.68;;;;;;;-145.45;100.00;62759.84;5311898;28;20397;-77
2022/05/13 07:22:46;;;;;;;14.68;5.13;;;;;;;-145.45;100.00;62759.84;5314924;27;20736;-77
2022/05/13 07:25:17;;;;;;;17.05;4.43;;;;;;;-145.45;100.00;62759.84;5313676;27;20028;-77
2022/05/13 07:27:49;;;;;;;14.88;4.50;;;;;;;-145.45;100.00;62759.84;5298303;28;20454;-77
2022/05/13 07:30:20;;;;;;;12.75;4.95;;;;;;;-145.45;100.00;62759.84;5322881;28;20043;-77
2022/05/13 07:32:52;;;;;;;14.27;5.43;;;;;;;-145.45;100.00;62759.84;5325507;28;20028;-77
2022/05/13 07:35:24;;;;;;;11.85;3.72;;;;;;;-145.45;100.00;62759.84;5307233;28;20484;-77
2022/05/13 07:37:55;;;;;;;14.02;4.40;;;;;;;-145.45;100.00;62759.84;5307595;28;20052;-77
2022/05/13 07:43:16;;;;;;;11.68;4.60;;;;;;;-145.45;100.00;62759.84;5326088;28;20020;-77
2022/05/13 07:45:48;;;;;;;14.18;4.38;;;;;;;-145.45;100.00;62759.84;5325558;28;20051;-77
2022/05/13 07:48:19;;;;;;;13.48;3.65;;;;;;;-145.45;100.00;62759.84;5326122;28;20043;-75
2022/05/13 07:50:52;;;;;;;14.70;3.85;;;;;;;-145.45;100.00;62759.84;5295957;28;20051;-77
2022/05/13 07:53:23;;;;;;;10.52;3.70;;;;;;;-145.45;100.00;62759.84;5304380;28;20107;-77
2022/05/13 07:55:54;;;;;;;14.20;3.65;;;;;;;-145.45;100.00;62759.84;5310099;28;20110;-77
2022/05/13 07:58:26;;;;;;;9.73;3.30;;;;;;;-145.45;100.00;62759.84;5316676;28;20026;-77
2022/05/13 08:00:58;;;;;;;13.60;3.47;;;;;;;-145.45;100.00;62759.84;5305800;28;20024;-77
2022/05/13 08:03:30;;;;;;;11.27;3.90;;;;;;;-145.45;100.00;62759.84;5323772;28;20109;-77
2022/05/13 08:06:06;;;;;;;11.45;3.40;;;;;;;-145.45;100.00;62759.84;5324133;27;20412;-77
2022/05/13 08:08:46;;;;;;;8.77;3.92;;;;;;;-145.45;100.00;62759.84;5323466;28;20102;-77
2022/05/13 08:11:17;;;;;;;9.32;3.50;;;;;;;-145.45;100.00;62759.84;5306020;28;20543;-77
2022/05/13 08:13:50;;;;;;;14.65;4.22;;;;;;;-145.45;100.00;62759.84;5319889;28;20112;-78
2022/05/13 08:16:26;;;;;;;13.50;3.92;;;;;;;-145.45;100.00;62759.84;5324246;28;20064;-77
2022/05/13 08:19:01;;;;;;;16.75;4.07;;;;;;;-145.45;100.00;62759.84;5323843;28;20024;-78
2022/05/13 08:21:36;;;;;;;9.77;3.80;;;;;;;-145.45;100.00;62759.84;5304796;28;20024;-77
2022/05/13 08:24:08;;;;;;;10.07;3.03;;;;;;;-145.45;100.00;62759.84;5300859;28;20047;-79
2022/05/13 08:26:39;;;;;;;11.60;3.53;;;;;;;-145.45;100.00;62759.84;5300517;28;20039;-77
2022/05/13 08:29:10;;;;;;;13.23;3.40;;;;;;;-145.45;100.00;62759.84;5319329;28;20107;-77
2022/05/13 08:31:41;;;;;;;12.65;3.17;;;;;;;-145.45;100.00;62759.84;5324112;28;20032;-77
2022/05/13 08:34:14;;;;;;;12.85;2.80;;;;;;;-145.45;100.00;62759.84;5321057;28;20099;-77
2022/05/13 08:36:46;;;;;;;9.43;2.72;;;;;;;-145.45;100.00;62759.84;5304719;28;20028;-77
2022/05/13 08:39:17;;;;;;;12.73;3.15;;;;;;;-145.45;100.00;62759.84;5323188;27;20035;-79
2022/05/13 08:41:54;;;;;;;14.23;3.67;;;;;;;-145.45;100.00;62759.84;5324735;28;20048;-78
2022/05/13 08:44:26;;;;;;;9.63;2.97;;;;;;;-145.45;100.00;62759.84;5322578;28;34738;-79
2022/05/13 08:47:13;;;;;;;9.43;2.53;;;;;;;-145.45;100.00;62759.84;5318846;28;20051;-78
2022/05/13 08:49:47;;;;;;;11.68;2.60;;;;;;;-145.45;100.00;62759.84;5322814;28;20062;-79
2022/05/13 08:55:26;;;;;;;12.43;2.67;;;;;;;-145.45;100.00;62759.84;5323268;28;20031;-78
2022/05/13 08:58:01;;;;;;;13.07;2.55;;;;;;;-145.45;100.00;62759.84;5322867;28;20032;-77
2022/05/13 09:00:39;;;;;;;20.77;4.13;;;;;;;-145.45;100.00;62759.84;5323476;28;20571;-77
2022/05/13 09:03:21;;;;;;;7.93;2.60;;;;;;;-145.45;100.00;62759.84;5324120;28;20107;-77
2022/05/13 09:06:14;;;;;;;28.23;4.97;;;;;;;-145.45;100.00;62759.84;5308978;28;20040;-77
2022/05/13 09:08:46;;;;;;;11.50;2.55;;;;;;;-145.45;100.00;62759.84;5323686;28;20024;-77
2022/05/13 09:11:38;;;;;;;9.15;2.10;;;;;;;-145.45;100.00;62759.84;5324566;28;20032;-77
2022/05/13 09:14:28;;;;;;;11.98;2.65;;;;;;;-145.45;100.00;62759.84;5315988;28;20020;-77
2022/05/13 09:17:18;;;;;;;10.05;2.22;;;;;;;-145.45;100.00;62759.84;5304783;28;20077;-78
2022/05/13 09:20:02;;;;;;;10.57;2.50;;;;;;;-145.45;100.00;62759.84;5321976;28;20348;-78
2022/05/13 09:22:39;;;;;;;10.38;2.38;;;;;;;-145.45;100.00;62759.84;5321299;28;20028;-78
2022/05/13 09:25:34;;;;;;;10.95;2.42;;;;;;;-145.45;100.00;62759.84;5313825;28;20129;-78
2022/05/13 09:28:14;;;;;;;10.25;2.50;;;;;;;-145.45;100.00;62759.84;5306700;28;20039;-78
2022/05/13 09:30:49;;;;;;;9.02;2.28;;;;;;;-145.45;100.00;62759.84;5311575;28;20028;-78
2022/05/13 09:33:30;;;;;;;10.75;2.67;;;;;;;-145.45;100.00;62759.84;5300218;28;20032;-78
2022/05/13 09:36:28;;;;;;;10.52;2.00;;;;;;;-145.45;100.00;62759.84;5305895;28;20384;-78
2022/05/13 09:39:24;;;;;;;7.65;1.83;;;;;;;-145.45;100.00;62759.84;5322556;28;20069;-78
2022/05/13 09:41:56;;;;;;;11.38;2.63;;;;;;;-145.45;100.00;62759.84;5311141;27;20115;-77
2022/05/13 09:44:27;;;;;;;8.00;1.75;;;;;;;-145.45;100.00;62759.84;5321801;27;20464;-77
2022/05/13 09:47:11;;;;;;;11.90;2.20;;;;;;;-145.45;100.00;62759.84;5322381;27;20039;-78
2022/05/13 09:49:47;;;;;;;7.28;2.15;;;;;;;-145.45;100.00;62759.84;5294491;28;20024;-78
2022/05/13 09:52:27;;;;;;;8.07;2.03;;;;;;;-145.45;100.00;62759.84;5313937;27;20638;-78
2022/05/13 09:55:31;;;;;;;5.78;1.80;;;;;;;-145.45;100.00;62759.84;5325568;27;20282;-77
2022/05/13 09:58:09;;;;;;;7.93;1.83;;;;;;;-145.45;100.00;62759.84;5318561;28;20071;-77
2022/05/13 10:00:48;;;;;;;6.82;2.70;;;;;;;-145.45;100.00;62759.84;5326116;28;20392;-77
2022/05/13 10:03:22;;;;;;;12.23;4.55;;;;;;;-145.45;100.00;62759.84;5327157;28;20028;-78
2022/05/13 10:06:09;;;;;;;14.90;6.13;;;;;;;-145.45;100.00;62759.84;5294907;27;20044;-78
2022/05/13 10:15:13;;;;;;;9.75;3.88;;;;;;;-145.45;100.00;62759.84;5339483;27;20073;-78
2022/05/13 10:17:50;;;;;;;10.07;1.60;;;;;;;-145.45;100.00;62759.84;5346561;27;20441;-78
2022/05/13 10:20:50;;;;;;;19.65;2.80;;;;;;;-145.45;100.00;62759.84;5332836;27;20491;-77
2022/05/13 10:23:32;;;;;;;9.50;1.80;;;;;;;-145.45;100.00;62759.84;5341647;27;20448;-77
2022/05/13 10:26:19;;;;;;;11.90;2.30;;;;;;;-145.45;100.00;62759.84;5343466;27;20031;-77
2022/05/13 10:28:58;;;;;;;8.90;2.08;;;;;;;-145.45;100.00;62759.84;5344094;27;20047;-77
2022/05/13 10:31:35;;;;;;;7.82;2.08;;;;;;;-145.45;100.00;62759.84;5348476;27;20449;-77
2022/05/13 10:34:31;;;;;;;7.93;1.98;;;;;;;-145.45;100.00;62759.84;5350361;27;20023;-78
2022/05/13 10:37:08;;;;;;;8.60;2.20;;;;;;;-145.45;100.00;62759.84;5339853;27;20016;-77
2022/05/13 10:39:45;;;;;;;9.27;2.45;;;;;;;-145.45;100.00;62759.84;5331909;27;20023;-77
2022/05/13 10:42:25;;;;;;;16.63;2.40;;;;;;;-145.45;100.00;62759.84;5348755;27;20027;-76
2022/05/13 10:45:17;;;;;;;9.77;2.30;;;;;;;-145.45;100.00;62759.84;5348352;27;20030;-77
2022/05/13 10:48:05;;;;;;;6.15;1.85;;;;;;;-145.45;100.00;62759.84;5326943;27;20081;-78
2022/05/13 10:50:46;;;;;;;11.35;2.55;;;;;;;-145.45;100.00;62759.84;5332297;27;20078;-77
2022/05/13 10:53:36;;;;;;;8.65;1.90;;;;;;;-145.45;100.00;62759.84;5347161;27;20581;-77
2022/05/13 10:56:17;;;;;;;7.40;1.95;;;;;;;-145.45;100.00;62759.84;5337779;27;20027;-77
2022/05/13 10:59:07;;;;;;;7.20;1.67;;;;;;;-145.45;100.00;62759.84;5327764;27;20074;-77
2022/05/13 11:02:02;;;;;;;10.40;2.13;;;;;;;-145.45;100.00;62759.84;5325609;27;20386;-77
2022/05/13 11:04:54;;;;;;;8.25;2.13;;;;;;;-145.45;100.00;62759.84;5333738;27;20077;-77
2022/05/13 11:07:48;;;;;;;5.70;1.90;;;;;;;-145.45;100.00;62759.84;5328799;27;20036;-77
2022/05/13 11:10:44;;;;;;;8.45;2.30;;;;;;;-145.45;100.00;62759.84;5314440;28;20028;-77
2022/05/13 11:13:43;;;;;;;10.63;2.30;;;;;;;-145.45;100.00;62759.84;5305999;28;20358;-77
2022/05/13 11:16:34;;;;;;;6.18;1.50;;;;;;;-145.45;100.00;62759.84;5322814;27;20024;-79
2022/05/13 11:19:31;;;;;;;8.48;2.15;;;;;;;-145.45;100.00;62759.84;5302912;27;20380;-79
2022/05/13 11:22:15;;;;;;;9.10;2.13;;;;;;;-145.45;100.00;62759.84;5325191;27;20107;-79
2022/05/13 11:28:14;;;;;;;12.43;2.58;;;;;;;-145.45;100.00;62759.84;5319561;27;20040;-79
2022/05/13 11:31:16;;;;;;;12.57;2.20;;;;;;;-145.45;100.00;62759.84;5319699;27;20025;-78
2022/05/13 11:34:07;;;;;;;6.35;2.05;;;;;;;-145.45;100.00;62759.84;5322285;27;20155;-78
2022/05/13 11:36:53;;;;;;;7.15;2.80;;;;;;;-145.45;100.00;62759.84;5303680;27;20040;-78
2022/05/13 11:39:51;;;;;;;6.57;1.70;;;;;;;-145.45;100.00;62759.84;5320984;27;20467;-78
2022/05/13 11:42:30;;;;;;;10.18;2.63;;;;;;;-145.45;100.00;62759.84;5320883;27;20032;-78
2022/05/13 11:45:21;;;;;;;8.70;1.98;;;;;;;-145.45;100.00;62759.84;5300369;28;20494;-77
2022/05/13 11:47:58;;;;;;;9.93;2.03;;;;;;;-145.45;100.00;62759.84;5318134;27;20032;-78
2022/05/13 11:50:31;;;;;;;8.32;2.33;;;;;;;-145.45;100.00;62759.84;5303134;27;20336;-77
2022/05/13 11:53:02;;;;;;;12.30;2.28;;;;;;;-145.45;100.00;62759.84;5325352;27;20032;-78
2022/05/13 11:55:47;;;;;;;12.30;2.50;;;;;;;-145.45;100.00;62759.84;5320926;27;20368;-77
2022/05/13 11:58:44;;;;;;;14.25;2.38;;;;;;;-145.45;100.00;62759.84;5299755;27;20032;-77
2022/05/13 12:01:34;;;;;;;10.85;2.35;;;;;;;-145.45;100.00;62759.84;5300367;28;20835;-78
2022/05/13 12:04:11;;;;;;;8.68;2.33;;;;;;;-145.45;100.00;62759.84;5307050;27;29746;-77
2022/05/13 12:06:55;;;;;;;5.72;1.88;;;;;;;-145.45;100.00;62759.84;5320303;27;20040;-78
2022/05/13 12:09:26;;;;;;;4.88;2.03;;;;;;;-145.45;100.00;62759.84;5319556;27;20027;-78
2022/05/13 12:12:26;;;;;;;9.80;2.40;;;;;;;-145.45;100.00;62759.84;5304469;28;20048;-78
2022/05/13 12:15:31;;;;;;;3.42;1.63;;;;;;;-145.45;100.00;62759.84;5320784;27;20109;-78
2022/05/13 12:18:24;;;;;;;11.05;1.92;;;;;;;-145.45;100.00;62759.84;5323736;27;20043;-78